Time;durP1;ratioP1;P1;durP2;ratioP2;P2;SDS_P1;SDS_P2;PMS_P1;PMS_P2;Temp;Humidity;BMP_temperature;BMP_pressure;BME280_temperature;BME280_humidity;BME280_pressure;Samples;Min_cycle;Max_cycle;Signal;HPM_P1;HPM_P2
2023/05/19 00:01:07;;;;;;;6.93;2.17;;;8.10;99.90;;;;;;5096542;28;20090;-63
2023/05/19 00:03:36;;;;;;;4.90;1.58;;;8.10;99.90;;;;;;5096242;28;20149;-64
2023/05/19 00:06:03;;;;;;;4.20;1.55;;;8.00;99.90;;;;;;5077999;28;20109;-64
2023/05/19 00:08:31;;;;;;;3.95;2.03;;;8.10;99.90;;;;;;5096387;28;20429;-63
2023/05/19 00:10:57;;;;;;;2.88;1.65;;;7.80;99.90;;;;;;5096118;28;20081;-63
2023/05/19 00:13:23;;;;;;;2.75;1.60;;;8.00;1.00;;;;;;5096354;28;20559;-64
2023/05/19 00:15:49;;;;;;;2.85;1.58;;;8.00;1.00;;;;;;5096360;28;20067;-64
2023/05/19 00:18:16;;;;;;;5.47;1.90;;;8.00;1.00;;;;;;5061066;28;20040;-64
2023/05/19 00:20:42;;;;;;;3.58;1.92;;;8.10;99.90;;;;;;5095933;28;20128;-64
2023/05/19 00:23:09;;;;;;;2.65;1.75;;;8.20;99.90;;;;;;5096110;28;20115;-64
2023/05/19 00:25:35;;;;;;;3.60;1.75;;;8.20;99.90;;;;;;5078109;28;20385;-64
2023/05/19 00:28:01;;;;;;;3.22;1.35;;;8.20;99.90;;;;;;5096073;28;20039;-65
2023/05/19 00:30:28;;;;;;;3.50;1.80;;;8.00;1.00;;;;;;5077906;28;20043;-64
2023/05/19 00:32:54;;;;;;;6.65;1.67;;;8.10;1.00;;;;;;5095740;28;20519;-63
2023/05/19 00:35:20;;;;;;;4.90;2.00;;;8.00;1.00;;;;;;5095898;28;20040;-64
2023/05/19 00:37:46;;;;;;;4.38;1.77;;;8.10;99.90;;;;;;5095600;28;20076;-64
2023/05/19 00:40:12;;;;;;;2.75;1.50;;;8.10;99.90;;;;;;5095850;28;20075;-64
2023/05/19 00:42:37;;;;;;;4.70;1.50;;;8.20;1.00;;;;;;5095808;28;20560;-64
2023/05/19 00:45:04;;;;;;;2.83;1.55;;;8.10;1.00;;;;;;5095820;28;20123;-64
2023/05/19 00:47:30;;;;;;;3.65;1.63;;;8.10;1.00;;;;;;5095370;28;20043;-63
2023/05/19 00:49:55;;;;;;;4.07;1.77;;;8.10;1.00;;;;;;5095616;28;20043;-64
2023/05/19 00:52:21;;;;;;;1.88;1.25;;;8.30;1.00;;;;;;5095590;28;20165;-64
2023/05/19 00:54:50;;;;;;;2.63;1.75;;;8.10;1.00;;;;;;5095560;28;20130;-64
2023/05/19 00:57:15;;;;;;;9.20;1.95;;;8.60;1.00;;;;;;5095420;28;20168;-64
2023/05/19 00:59:41;;;;;;;2.75;1.58;;;8.40;1.00;;;;;;5095525;28;20395;-63
2023/05/19 01:02:07;;;;;;;3.85;1.80;;;8.10;1.00;;;;;;5095362;28;20044;-64
2023/05/19 01:04:35;;;;;;;2.10;1.45;;;8.00;1.00;;;;;;5095364;28;20045;-64
2023/05/19 01:07:00;;;;;;;3.15;1.65;;;8.00;1.00;;;;;;5095365;28;20395;-64
2023/05/19 01:09:26;;;;;;;4.93;2.00;;;8.60;1.00;;;;;;5095179;28;20036;-63
2023/05/19 01:11:52;;;;;;;5.50;2.20;;;8.10;1.00;;;;;;5076607;28;20101;-64
2023/05/19 01:14:19;;;;;;;3.63;1.98;;;8.00;1.00;;;;;;5095202;28;20043;-64
2023/05/19 01:17:05;;;;;;;6.60;2.08;;;7.90;13.60;;;;;;5095136;28;20403;-64
2023/05/19 01:19:56;;;;;;;4.07;1.80;;;7.90;4.90;;;;;;5095143;28;20048;-63
2023/05/19 01:22:55;;;;;;;7.70;1.67;;;8.00;13.80;;;;;;5094716;28;20058;-64
2023/05/19 01:25:48;;;;;;;9.20;2.42;;;7.80;24.50;;;;;;5094991;28;20079;-64
2023/05/19 01:28:14;;;;;;;6.43;1.95;;;7.80;16.30;;;;;;5094892;28;20109;-64
2023/05/19 01:30:42;;;;;;;2.70;1.60;;;7.80;7.20;;;;;;5076375;28;20052;-64
2023/05/19 01:33:11;;;;;;;4.57;1.88;;;8.40;1.00;;;;;;5094758;28;20040;-64
2023/05/19 01:35:38;;;;;;;4.28;1.90;;;7.80;1.00;;;;;;5094777;28;20068;-63
2023/05/19 01:38:06;;;;;;;4.95;2.38;;;7.70;1.00;;;;;;5094690;28;20039;-63
2023/05/19 01:40:33;;;;;;;3.40;1.67;;;7.70;6.30;;;;;;5094808;28;20472;-64
2023/05/19 01:43:00;;;;;;;4.22;1.85;;;7.60;15.20;;;;;;5094606;28;20032;-64
2023/05/19 01:45:31;;;;;;;8.68;2.35;;;7.70;13.80;;;;;;5076049;28;20071;-64
2023/05/19 01:47:58;;;;;;;;;;;7.70;22.80;;;;;;5094949;28;20044;-64
2023/05/19 01:50:24;;;;;;;7.53;2.17;;;7.70;36.60;;;;;;5076010;28;19916;-64
2023/05/19 01:52:50;;;;;;;4.25;1.67;;;7.70;24.60;;;;;;5094404;28;20519;-64
2023/05/19 01:55:16;;;;;;;3.17;1.52;;;7.60;36.20;;;;;;5094391;28;20071;-64
2023/05/19 01:58:05;;;;;;;14.38;2.20;;;7.60;38.80;;;;;;5075916;28;20119;-64
2023/05/19 02:00:54;;;;;;;4.90;1.73;;;7.60;50.10;;;;;;5094300;28;20040;-64
2023/05/19 02:03:41;;;;;;;7.28;2.30;;;7.90;53.10;;;;;;5094226;28;20036;-63
2023/05/19 02:06:31;;;;;;;3.35;1.67;;;7.60;49.00;;;;;;5094208;28;20047;-63
2023/05/19 02:09:11;;;;;;;12.50;2.40;;;7.60;61.70;;;;;;5094112;28;20445;-64
2023/05/19 02:11:45;;;;;;;9.02;2.55;;;7.60;57.60;;;;;;5058830;28;20084;-64
2023/05/19 02:14:19;;;;;;;6.05;2.38;;;7.60;60.00;;;;;;5093747;28;20547;-64
2023/05/19 02:16:46;;;;;;;5.60;2.60;;;7.60;56.60;;;;;;5058861;28;20472;-64
2023/05/19 02:19:30;;;;;;;4.40;2.20;;;7.60;49.40;;;;;;5093959;28;20042;-64
2023/05/19 02:21:56;;;;;;;4.10;2.40;;;8.80;48.30;;;;;;5093118;28;20036;-64
2023/05/19 02:24:22;;;;;;;4.13;2.70;;;7.70;38.60;;;;;;5093854;28;20044;-63
2023/05/19 02:26:49;;;;;;;6.45;2.42;;;7.60;38.30;;;;;;5093818;28;20038;-64
2023/05/19 02:29:15;;;;;;;4.28;2.50;;;7.60;35.40;;;;;;5093827;28;20477;-64
2023/05/19 02:31:40;;;;;;;6.38;2.70;;;7.60;67.20;;;;;;5093400;28;20036;-64
2023/05/19 02:34:07;;;;;;;7.80;2.70;;;7.50;73.40;;;;;;5093643;28;20040;-63
2023/05/19 02:36:35;;;;;;;7.72;2.40;;;7.60;69.90;;;;;;5093711;28;20079;-64
2023/05/19 02:39:01;;;;;;;4.70;2.22;;;7.20;66.70;;;;;;5093594;28;20040;-64
2023/05/19 02:41:27;;;;;;;6.68;2.55;;;7.30;75.70;;;;;;5075168;28;20075;-64
2023/05/19 02:43:53;;;;;;;5.90;2.88;;;7.40;66.80;;;;;;5093518;28;20503;-64
2023/05/19 02:46:19;;;;;;;4.40;2.20;;;10.90;63.60;;;;;;5093165;28;20043;-64
2023/05/19 02:48:45;;;;;;;5.97;2.20;;;7.30;63.50;;;;;;5092230;28;20456;-64
2023/05/19 02:51:10;;;;;;;6.10;2.90;;;7.30;62.10;;;;;;5093324;28;20070;-63
2023/05/19 02:53:36;;;;;;;5.30;2.35;;;7.30;67.80;;;;;;5093442;28;20391;-64
2023/05/19 02:56:02;;;;;;;8.93;2.63;;;7.30;71.20;;;;;;5093438;28;20039;-64
2023/05/19 02:58:27;;;;;;;10.27;2.88;;;7.50;69.00;;;;;;5093381;28;20032;-64
2023/05/19 03:00:54;;;;;;;7.28;2.72;;;7.40;71.40;;;;;;5093314;28;20399;-64
2023/05/19 03:03:20;;;;;;;5.43;2.30;;;7.40;70.90;;;;;;5093309;28;20043;-64
2023/05/19 03:05:46;;;;;;;5.22;2.33;;;7.30;69.80;;;;;;5093225;28;20040;-64
2023/05/19 03:08:12;;;;;;;7.30;2.40;;;7.30;73.70;;;;;;5093013;28;20119;-64
2023/05/19 03:10:37;;;;;;;5.38;2.55;;;7.30;69.60;;;;;;5093004;28;20472;-63
2023/05/19 03:13:03;;;;;;;5.32;2.80;;;7.20;68.00;;;;;;5093178;28;20040;-64
2023/05/19 03:15:29;;;;;;;3.67;2.40;;;7.30;69.30;;;;;;5093183;28;20395;-64
2023/05/19 03:17:55;;;;;;;5.95;2.55;;;7.20;72.10;;;;;;5093140;28;20040;-64
2023/05/19 03:20:21;;;;;;;6.57;2.85;;;7.30;85.30;;;;;;5093090;28;20036;-67
2023/05/19 03:22:46;;;;;;;6.35;2.33;;;7.00;80.10;;;;;;5093118;28;20040;-64
2023/05/19 03:25:12;;;;;;;7.75;2.67;;;7.10;76.70;;;;;;5092739;28;20047;-64
2023/05/19 03:27:38;;;;;;;5.75;2.10;;;7.00;78.70;;;;;;5093029;28;20044;-64
2023/05/19 03:30:04;;;;;;;7.50;2.35;;;7.10;84.70;;;;;;5093056;28;20088;-64
2023/05/19 03:32:31;;;;;;;4.80;2.22;;;7.10;91.10;;;;;;5093490;28;20032;-64
2023/05/19 03:34:57;;;;;;;2.88;1.67;;;7.10;91.80;;;;;;5097103;28;20080;-63
2023/05/19 03:37:23;;;;;;;8.07;2.20;;;7.10;89.90;;;;;;5097076;28;20036;-64
2023/05/19 03:39:48;;;;;;;2.97;1.58;;;7.10;90.40;;;;;;5079007;28;20058;-64
2023/05/19 03:42:14;;;;;;;3.50;1.70;;;7.00;90.90;;;;;;5096926;28;20395;-64
2023/05/19 03:44:40;;;;;;;3.22;2.03;;;7.10;90.00;;;;;;5096611;28;20051;-63
2023/05/19 03:47:06;;;;;;;3.50;1.65;;;7.00;91.00;;;;;;5096562;28;20044;-63
2023/05/19 03:49:31;;;;;;;4.63;1.77;;;7.10;93.70;;;;;;5096833;28;20071;-64
2023/05/19 03:51:57;;;;;;;2.45;1.70;;;7.00;97.60;;;;;;5096276;28;20110;-64
2023/05/19 03:54:23;;;;;;;3.47;1.90;;;7.30;99.50;;;;;;5078587;28;20040;-64
2023/05/19 03:56:48;;;;;;;5.35;1.90;;;7.00;98.60;;;;;;5096700;28;20032;-64
2023/05/19 03:59:15;;;;;;;3.58;1.73;;;7.00;99.90;;;;;;5096306;28;20404;-64
2023/05/19 04:01:40;;;;;;;2.72;1.67;;;7.10;99.90;;;;;;5096637;28;20145;-64
2023/05/19 04:04:06;;;;;;;1.83;1.20;;;7.00;99.90;;;;;;5096556;28;20478;-64
2023/05/19 04:06:32;;;;;;;4.53;1.92;;;7.00;99.40;;;;;;5096542;28;20036;-64
2023/05/19 04:08:58;;;;;;;3.38;1.42;;;7.20;99.20;;;;;;5096088;28;20036;-64
2023/05/19 04:11:24;;;;;;;2.45;1.50;;;7.00;98.50;;;;;;5096007;28;20424;-64
2023/05/19 04:13:50;;;;;;;2.53;1.33;;;7.10;96.60;;;;;;5096398;28;20040;-63
2023/05/19 04:16:15;;;;;;;4.63;2.22;;;7.20;94.60;;;;;;5096261;28;20399;-64
2023/05/19 04:18:41;;;;;;;6.43;1.63;;;7.10;95.70;;;;;;5096331;28;20042;-63
2023/05/19 04:21:07;;;;;;;3.53;1.45;;;7.10;98.60;;;;;;5096241;28;20527;-63
2023/05/19 04:23:33;;;;;;;2.75;1.50;;;7.10;99.20;;;;;;5078164;28;20456;-64
2023/05/19 04:26:00;;;;;;;2.22;1.15;;;7.10;99.80;;;;;;5095745;28;20036;-64
2023/05/19 04:28:26;;;;;;;2.95;1.52;;;7.20;99.60;;;;;;5095820;28;20044;-64
2023/05/19 04:30:52;;;;;;;3.72;1.67;;;7.20;98.10;;;;;;5077522;28;20126;-64
2023/05/19 04:33:18;;;;;;;4.70;1.50;;;7.20;97.50;;;;;;5095999;28;20028;-64
2023/05/19 04:35:44;;;;;;;4.82;1.67;;;7.40;99.30;;;;;;5060962;28;20113;-64
2023/05/19 04:38:10;;;;;;;2.30;1.50;;;7.30;98.70;;;;;;5095929;28;20036;-64
2023/05/19 04:40:36;;;;;;;2.30;1.35;;;7.20;98.00;;;;;;5095883;28;20036;-63
2023/05/19 04:43:02;;;;;;;5.20;1.98;;;7.70;97.70;;;;;;5095613;28;20099;-63
2023/05/19 04:45:28;;;;;;;2.08;1.30;;;7.60;97.20;;;;;;5095859;28;20032;-63
2023/05/19 04:47:56;;;;;;;3.15;1.73;;;7.60;96.50;;;;;;5095743;28;20410;-64
2023/05/19 04:50:23;;;;;;;3.67;1.50;;;7.90;96.10;;;;;;5095601;28;20036;-64
2023/05/19 04:52:49;;;;;;;5.90;1.70;;;7.60;97.50;;;;;;5095288;28;20403;-63
2023/05/19 04:55:14;;;;;;;3.63;1.95;;;7.80;98.10;;;;;;5095607;28;20042;-64
2023/05/19 04:57:40;;;;;;;2.92;1.60;;;8.00;98.50;;;;;;5095547;28;20040;-63
2023/05/19 05:00:08;;;;;;;3.97;2.00;;;8.00;99.40;;;;;;5095527;28;20032;-64
2023/05/19 05:02:34;;;;;;;3.28;1.50;;;8.00;99.90;;;;;;5095466;28;20050;-64
2023/05/19 05:04:59;;;;;;;5.05;1.50;;;8.20;99.90;;;;;;5095344;28;20399;-64
2023/05/19 05:07:25;;;;;;;5.15;2.03;;;;;;;;;;5095347;28;20036;-64
2023/05/19 05:09:51;;;;;;;3.60;1.80;;;;;;;;;;5095309;28;20127;-64
2023/05/19 05:12:18;;;;;;;3.88;2.22;;;;;;;;;;5094806;28;20134;-64
2023/05/19 05:14:44;;;;;;;3.63;1.85;;;;;;;;;;5095261;28;20032;-64
2023/05/19 05:17:12;;;;;;;3.50;1.85;;;;;;;;;;5076694;28;20047;-64
2023/05/19 05:19:38;;;;;;;4.03;1.88;;;8.70;86.00;;;;;;5076915;28;20075;-64
2023/05/19 05:22:05;;;;;;;2.88;2.00;;;8.80;85.80;;;;;;5095362;28;20048;-63
2023/05/19 05:24:31;;;;;;;6.22;2.17;;;8.80;84.70;;;;;;5095015;28;20040;-64
2023/05/19 05:26:57;;;;;;;3.75;2.25;;;9.00;79.80;;;;;;5094717;28;20452;-64
2023/05/19 05:29:24;;;;;;;3.63;2.10;;;9.00;77.70;;;;;;5094888;28;20125;-64
2023/05/19 05:31:49;;;;;;;9.57;2.70;;;9.10;80.10;;;;;;5094435;28;20047;-64
2023/05/19 05:34:15;;;;;;;3.03;1.38;;;9.30;72.50;;;;;;5094808;28;20040;-64
2023/05/19 05:36:41;;;;;;;3.63;2.10;;;9.40;65.20;;;;;;5094768;28;20038;-64
2023/05/19 05:39:06;;;;;;;5.53;2.25;;;9.50;63.90;;;;;;5094692;28;20036;-64
2023/05/19 05:41:34;;;;;;;4.20;2.25;;;9.60;56.20;;;;;;5094667;28;20109;-64
2023/05/19 05:44:03;;;;;;;3.30;2.20;;;9.80;45.40;;;;;;5094664;28;20080;-64
2023/05/19 05:46:29;;;;;;;3.63;2.10;;;9.90;2.10;;;;;;5094578;28;20124;-64
2023/05/19 05:48:55;;;;;;;4.68;2.15;;;10.00;1.00;;;;;;5076399;28;20456;-64
2023/05/19 05:51:24;;;;;;;7.78;2.55;;;10.10;1.00;;;;;;5094114;28;20140;-64
2023/05/19 05:53:53;;;;;;;9.25;2.53;;;10.20;99.90;;;;;;5094088;28;20071;-64
2023/05/19 05:56:20;;;;;;;4.93;2.60;;;10.30;99.90;;;;;;5093533;28;20537;-64
2023/05/19 05:58:46;;;;;;;5.40;2.00;;;10.40;99.90;;;;;;5075836;28;20040;-64
2023/05/19 06:01:12;;;;;;;5.50;2.53;;;10.50;99.90;;;;;;5094191;28;20549;-64
2023/05/19 06:03:43;;;;;;;5.70;2.75;;;10.60;99.90;;;;;;5075823;28;20044;-65
2023/05/19 06:06:09;;;;;;;4.82;2.30;;;10.70;99.90;;;;;;5094162;28;20047;-70
2023/05/19 06:08:35;;;;;;;3.50;2.35;;;12.10;99.90;;;;;;5058982;28;20055;-64
2023/05/19 06:11:07;;;;;;;3.00;2.08;;;10.80;99.90;;;;;;5093570;28;20164;-64
2023/05/19 06:13:36;;;;;;;3.63;2.45;;;10.90;99.90;;;;;;5093958;28;20438;-64
2023/05/19 06:16:02;;;;;;;6.15;3.08;;;11.00;99.90;;;;;;5093612;28;20118;-64
2023/05/19 06:18:28;;;;;;;14.05;2.88;;;11.20;95.40;;;;;;5058702;28;20131;-64
2023/05/19 06:20:54;;;;;;;3.83;2.25;;;11.20;48.70;;;;;;5093732;28;20038;-64
2023/05/19 06:23:20;;;;;;;3.78;2.10;;;11.40;99.90;;;;;;5093484;28;20040;-64
2023/05/19 06:25:45;;;;;;;7.28;2.80;;;11.60;46.00;;;;;;5093702;28;20043;-64
2023/05/19 06:28:11;;;;;;;9.32;2.42;;;11.70;99.90;;;;;;5075508;28;20475;-64
2023/05/19 06:30:37;;;;;;;5.60;2.03;;;11.90;60.00;;;;;;5093653;28;20036;-64
2023/05/19 06:33:02;;;;;;;7.53;2.00;;;12.70;99.90;;;;;;5075147;28;20509;-64
2023/05/19 06:35:29;;;;;;;8.23;2.95;;;12.10;99.90;;;;;;5093587;28;20471;-64
2023/05/19 06:37:55;;;;;;;5.38;2.17;;;12.20;99.90;;;;;;5093236;28;20052;-64
2023/05/19 06:40:21;;;;;;;6.10;2.75;;;12.30;99.90;;;;;;5093498;28;20032;-64
2023/05/19 06:42:47;;;;;;;3.40;2.25;;;12.50;99.90;;;;;;5093452;28;20118;-64
2023/05/19 06:45:12;;;;;;;7.20;2.65;;;12.40;99.90;;;;;;5075081;28;20521;-65
2023/05/19 06:47:41;;;;;;;4.38;2.58;;;12.60;99.90;;;;;;5093233;28;20483;-64
2023/05/19 06:50:09;;;;;;;3.63;2.03;;;12.80;99.90;;;;;;5093445;28;20391;-64
2023/05/19 06:52:35;;;;;;;3.50;1.95;;;12.90;99.90;;;;;;5058310;28;20098;-64
2023/05/19 06:55:01;;;;;;;10.77;2.97;;;13.10;99.90;;;;;;5075050;28;20442;-65
2023/05/19 06:57:26;;;;;;;3.25;2.08;;;13.30;99.90;;;;;;5093281;28;20032;-64
2023/05/19 06:59:52;;;;;;;3.75;2.17;;;12.90;99.90;;;;;;5093003;28;20046;-64
2023/05/19 07:02:18;;;;;;;5.68;1.75;;;13.40;99.90;;;;;;5092930;28;20036;-65
2023/05/19 07:04:43;;;;;;;3.05;2.13;;;13.70;99.90;;;;;;5093209;28;20044;-65
2023/05/19 07:07:09;;;;;;;3.60;1.88;;;13.70;99.90;;;;;;5093269;28;20064;-64
2023/05/19 07:09:35;;;;;;;4.65;1.65;;;13.80;99.90;;;;;;5093138;28;20044;-64
2023/05/19 07:12:00;;;;;;;3.22;1.50;;;13.80;99.90;;;;;;5074521;28;20095;-64
2023/05/19 07:14:26;;;;;;;6.70;1.85;;;14.50;99.90;;;;;;5058026;28;20076;-66
2023/05/19 07:16:52;;;;;;;4.93;1.98;;;14.00;99.90;;;;;;5075006;28;20033;-64
2023/05/19 07:19:18;;;;;;;7.65;1.73;;;13.80;99.90;;;;;;5093065;28;20081;-64
2023/05/19 07:21:45;;;;;;;2.60;1.13;;;14.40;99.90;;;;;;5092854;28;20130;-64
2023/05/19 07:24:10;;;;;;;3.53;1.63;;;14.20;99.90;;;;;;5093032;28;20494;-64
2023/05/19 07:26:36;;;;;;;2.83;1.58;;;14.10;99.90;;;;;;5093112;28;20083;-64
2023/05/19 07:29:02;;;;;;;4.75;1.55;;;14.40;99.90;;;;;;5092910;28;20032;-64
2023/05/19 07:31:27;;;;;;;3.08;1.70;;;15.20;99.90;;;;;;5092809;28;20081;-64
2023/05/19 07:33:53;;;;;;;6.53;1.48;;;14.50;93.40;;;;;;5092564;28;20040;-64
2023/05/19 07:36:19;;;;;;;4.03;1.30;;;14.60;98.20;;;;;;5092876;28;20036;-64
2023/05/19 07:38:45;;;;;;;5.53;1.63;;;14.60;91.90;;;;;;5092963;28;20448;-64
2023/05/19 07:41:11;;;;;;;3.38;1.50;;;14.80;81.70;;;;;;5074504;28;20055;-65
2023/05/19 07:43:37;;;;;;;6.78;1.65;;;14.60;77.10;;;;;;5092849;28;20044;-66
2023/05/19 07:46:03;;;;;;;2.17;1.42;;;14.70;83.60;;;;;;5092891;28;20039;-64
2023/05/19 07:48:28;;;;;;;6.45;1.20;;;14.80;72.30;;;;;;5092769;28;20533;-64
2023/05/19 07:50:54;;;;;;;2.22;1.02;;;14.80;79.30;;;;;;5092709;28;20040;-64
2023/05/19 07:53:21;;;;;;;4.80;1.25;;;14.90;76.80;;;;;;5092230;28;20040;-64
2023/05/19 07:55:47;;;;;;;3.17;1.25;;;15.00;77.20;;;;;;5074125;28;20059;-64
2023/05/19 07:58:13;;;;;;;3.97;1.20;;;15.00;72.10;;;;;;5092580;28;20048;-64
2023/05/19 08:00:41;;;;;;;3.10;1.40;;;15.00;77.00;;;;;;5092511;28;20036;-64
2023/05/19 08:03:07;;;;;;;3.65;1.35;;;15.20;85.60;;;;;;5092536;28;20032;-64
2023/05/19 08:05:34;;;;;;;5.82;1.52;;;14.80;75.10;;;;;;5092491;28;20040;-65
2023/05/19 08:08:00;;;;;;;4.90;1.42;;;15.20;66.70;;;;;;5092553;28;20071;-64
2023/05/19 08:10:25;;;;;;;1.85;1.15;;;15.40;65.40;;;;;;5092295;28;20036;-67
2023/05/19 08:12:51;;;;;;;1.98;1.25;;;16.80;74.80;;;;;;5092469;28;20044;-64
2023/05/19 08:15:17;;;;;;;2.35;1.45;;;15.60;70.40;;;;;;5092208;28;20372;-65
2023/05/19 08:17:43;;;;;;;2.55;1.30;;;15.30;69.50;;;;;;5093228;28;20063;-69
2023/05/19 08:20:11;;;;;;;3.90;1.30;;;15.70;67.20;;;;;;5095175;28;20078;-66
2023/05/19 08:22:37;;;;;;;2.88;1.27;;;15.80;66.60;;;;;;5095968;28;20044;-71
2023/05/19 08:25:04;;;;;;;4.63;1.15;;;16.00;84.20;;;;;;5077685;28;20170;-69
2023/05/19 08:27:30;;;;;;;2.38;1.25;;;16.00;69.60;;;;;;5096025;28;20498;-67
2023/05/19 08:29:56;;;;;;;2.78;1.40;;;16.30;68.90;;;;;;5095688;28;20039;-66
2023/05/19 08:32:21;;;;;;;1.67;1.00;;;16.00;58.20;;;;;;5095829;28;20051;-66
2023/05/19 08:34:47;;;;;;;1.58;1.08;;;16.90;64.30;;;;;;5095549;28;20115;-66
2023/05/19 08:37:13;;;;;;;4.68;1.38;;;16.20;64.40;;;;;;5077825;28;20114;-66
2023/05/19 08:39:38;;;;;;;4.50;1.10;;;16.20;63.20;;;;;;5095844;28;20032;-66
2023/05/19 08:42:06;;;;;;;5.75;1.42;;;16.30;60.30;;;;;;5095899;28;20047;-66
2023/05/19 08:44:32;;;;;;;1.00;0.90;;;16.40;61.90;;;;;;5077526;28;20082;-66
2023/05/19 08:47:01;;;;;;;1.83;1.02;;;16.40;58.80;;;;;;5077292;28;20044;-66
2023/05/19 08:49:32;;;;;;;3.58;1.70;;;16.60;58.80;;;;;;5095752;28;20509;-68
2023/05/19 08:52:10;;;;;;;4.13;1.38;;;16.40;57.10;;;;;;5060580;28;20048;-68
2023/05/19 08:54:59;;;;;;;1.88;0.90;;;16.50;59.80;;;;;;5095466;28;20075;-69
2023/05/19 08:57:26;;;;;;;1.45;0.63;;;16.50;58.90;;;;;;5077354;28;20130;-69
2023/05/19 08:59:54;;;;;;;6.38;1.20;;;16.60;58.70;;;;;;5095058;28;20036;-70
2023/05/19 09:02:21;;;;;;;4.32;1.10;;;16.60;60.30;;;;;;5095101;28;20044;-69
2023/05/19 09:04:47;;;;;;;4.20;0.80;;;16.40;56.00;;;;;;5094879;28;20036;-68
2023/05/19 09:07:14;;;;;;;4.63;1.48;;;16.60;54.70;;;;;;5095172;28;20494;-67
2023/05/19 09:09:42;;;;;;;4.90;1.23;;;17.00;57.80;;;;;;5094841;28;20073;-67
2023/05/19 09:12:10;;;;;;;2.00;1.00;;;16.70;56.10;;;;;;5076587;28;20044;-66
2023/05/19 09:14:36;;;;;;;0.90;0.73;;;16.70;57.70;;;;;;5094982;28;20035;-67
2023/05/19 09:17:02;;;;;;;3.30;0.90;;;16.50;56.60;;;;;;5095018;28;20032;-67
2023/05/19 09:19:28;;;;;;;2.83;1.33;;;16.70;54.80;;;;;;5095028;28;20038;-66
2023/05/19 09:22:04;;;;;;;2.78;1.38;;;16.80;55.00;;;;;;5094956;28;20047;-69
2023/05/19 09:24:30;;;;;;;2.92;1.17;;;16.80;51.50;;;;;;5094761;28;20093;-69
2023/05/19 09:26:56;;;;;;;1.75;1.17;;;16.90;67.00;;;;;;5094769;28;20047;-69
2023/05/19 09:29:22;;;;;;;3.40;1.05;;;16.60;55.10;;;;;;5094611;28;20039;-69
2023/05/19 09:31:52;;;;;;;4.22;0.98;;;16.80;52.70;;;;;;5094559;28;20048;-67
2023/05/19 09:34:21;;;;;;;2.25;1.13;;;16.90;53.90;;;;;;5094588;28;20086;-68
2023/05/19 09:36:53;;;;;;;2.55;0.95;;;16.80;49.00;;;;;;5075869;28;20047;-68
2023/05/19 09:39:20;;;;;;;4.03;1.10;;;17.30;52.10;;;;;;5094500;28;20077;-68
2023/05/19 09:41:50;;;;;;;1.80;1.15;;;17.00;48.20;;;;;;5094429;28;20480;-68
2023/05/19 09:44:23;;;;;;;2.05;1.10;;;16.80;44.50;;;;;;5075992;28;20418;-67
2023/05/19 09:46:52;;;;;;;1.63;1.08;;;16.80;47.10;;;;;;5095269;28;20048;-68
2023/05/19 09:49:19;;;;;;;4.55;1.17;;;16.80;42.90;;;;;;5076195;28;20047;-66
2023/05/19 09:51:45;;;;;;;1.88;0.98;;;16.90;48.20;;;;;;5093937;28;20051;-68
2023/05/19 09:54:15;;;;;;;3.67;1.42;;;17.00;48.80;;;;;;5094323;28;20032;-66
2023/05/19 09:56:41;;;;;;;1.52;1.13;;;17.00;48.90;;;;;;5094282;28;20499;-66
2023/05/19 09:59:07;;;;;;;1.52;1.10;;;17.30;57.10;;;;;;5094230;28;20036;-65
2023/05/19 10:01:35;;;;;;;2.03;1.10;;;17.40;53.20;;;;;;5093924;28;20040;-67
2023/05/19 10:04:02;;;;;;;3.15;1.40;;;17.50;52.70;;;;;;5093770;28;20040;-66
2023/05/19 10:06:28;;;;;;;2.30;1.00;;;17.40;49.20;;;;;;5075688;28;20112;-66
2023/05/19 10:08:54;;;;;;;3.45;1.38;;;17.30;49.70;;;;;;5093717;28;20127;-65
2023/05/19 10:11:22;;;;;;;2.55;1.15;;;17.30;50.30;;;;;;5093730;28;20124;-66
2023/05/19 10:13:50;;;;;;;1.80;1.20;;;17.20;50.00;;;;;;5093659;28;20088;-66
2023/05/19 10:16:17;;;;;;;4.57;1.40;;;17.40;51.60;;;;;;5093872;28;20036;-69
2023/05/19 10:18:43;;;;;;;2.85;1.20;;;17.50;54.80;;;;;;5075480;28;20429;-69
2023/05/19 10:21:10;;;;;;;2.03;0.98;;;17.60;50.10;;;;;;5075576;28;20085;-70
2023/05/19 10:23:35;;;;;;;4.28;1.58;;;17.60;52.40;;;;;;5093368;28;20055;-68
2023/05/19 10:26:05;;;;;;;1.23;0.93;;;17.70;54.30;;;;;;5093829;28;20039;-74
2023/05/19 10:28:36;;;;;;;3.00;1.20;;;17.70;54.30;;;;;;5075594;28;20125;-68
2023/05/19 10:31:05;;;;;;;2.40;1.25;;;17.70;55.00;;;;;;5093210;28;20039;-69
2023/05/19 10:33:51;;;;;;;2.20;1.23;;;17.80;52.70;;;;;;5075479;28;20044;-68
2023/05/19 10:36:31;;;;;;;2.70;1.38;;;17.60;51.20;;;;;;5075172;28;20044;-65
2023/05/19 10:39:05;;;;;;;1.98;1.17;;;18.30;50.80;;;;;;5093313;28;20032;-66
2023/05/19 10:41:39;;;;;;;2.75;1.20;;;17.50;48.10;;;;;;5093508;28;20483;-66
2023/05/19 10:44:22;;;;;;;6.07;1.58;;;17.50;50.50;;;;;;5093504;28;20047;-66
2023/05/19 10:46:47;;;;;;;4.13;1.50;;;17.40;47.00;;;;;;5093512;28;20048;-65
2023/05/19 10:49:23;;;;;;;2.72;1.42;;;17.40;49.30;;;;;;5075104;28;20518;-65
2023/05/19 10:51:50;;;;;;;1.98;1.40;;;17.30;46.20;;;;;;5093061;28;20173;-67
2023/05/19 10:54:17;;;;;;;2.53;1.20;;;17.70;44.70;;;;;;5093019;28;20051;-68
2023/05/19 10:56:46;;;;;;;5.18;1.50;;;17.30;45.90;;;;;;5093293;28;20040;-68
2023/05/19 10:59:32;;;;;;;4.47;1.85;;;17.50;48.60;;;;;;5093300;28;20039;-66
2023/05/19 11:02:03;;;;;;;2.03;1.13;;;17.40;45.00;;;;;;5091971;28;20047;-65
2023/05/19 11:04:57;;;;;;;;;;;17.40;46.00;;;;;;5093299;28;20035;-65
2023/05/19 11:07:23;;;;;;;1.98;1.02;;;17.40;45.00;;;;;;5075569;28;19916;-65
2023/05/19 11:09:50;;;;;;;5.28;1.30;;;17.80;48.90;;;;;;5093179;28;20559;-71
2023/05/19 11:12:23;;;;;;;3.50;1.33;;;17.60;46.90;;;;;;5074560;28;20141;-68
2023/05/19 11:14:53;;;;;;;3.47;1.58;;;17.70;47.50;;;;;;5091657;28;20048;-75
2023/05/19 11:17:22;;;;;;;1.30;0.88;;;17.70;48.80;;;;;;5074737;28;20119;-68
2023/05/19 11:19:55;;;;;;;5.18;1.33;;;17.80;49.40;;;;;;5093030;28;20372;-68
2023/05/19 11:22:27;;;;;;;5.15;1.42;;;18.00;52.10;;;;;;5092834;28;20085;-68
2023/05/19 11:24:56;;;;;;;2.80;1.45;;;17.90;50.90;;;;;;5093070;28;20046;-68
2023/05/19 11:27:31;;;;;;;4.38;1.33;;;18.30;49.40;;;;;;5093035;28;20040;-68
2023/05/19 11:30:17;;;;;;;4.70;1.33;;;17.70;46.10;;;;;;5092918;28;20079;-65
2023/05/19 11:32:46;;;;;;;2.60;1.42;;;17.80;47.90;;;;;;5092874;28;20075;-66
2023/05/19 11:35:13;;;;;;;2.60;1.10;;;17.70;59.70;;;;;;5092773;28;20078;-66
2023/05/19 11:37:41;;;;;;;2.42;1.10;;;18.50;49.90;;;;;;5074456;28;20044;-66
2023/05/19 11:40:07;;;;;;;3.53;1.30;;;18.00;49.50;;;;;;5092807;28;20535;-66
2023/05/19 11:42:35;;;;;;;3.17;1.50;;;18.10;51.10;;;;;;5092906;28;20044;-66
2023/05/19 11:45:02;;;;;;;2.30;1.30;;;18.60;52.50;;;;;;5092691;28;20113;-66
2023/05/19 11:47:30;;;;;;;2.75;1.13;;;18.20;47.80;;;;;;5074773;28;20055;-66
2023/05/19 11:49:55;;;;;;;4.70;1.05;;;18.70;49.20;;;;;;5092833;28;20071;-66
2023/05/19 11:52:26;;;;;;;2.58;1.55;;;18.30;50.20;;;;;;5092815;28;20071;-66
2023/05/19 11:54:51;;;;;;;2.70;1.15;;;18.30;49.70;;;;;;5095437;28;20040;-66
2023/05/19 11:57:17;;;;;;;4.75;1.10;;;18.40;50.90;;;;;;5096446;28;20058;-66
2023/05/19 11:59:44;;;;;;;4.30;1.20;;;18.60;53.10;;;;;;5096681;28;20032;-66
2023/05/19 12:02:26;;;;;;;2.05;1.15;;;19.10;53.30;;;;;;5096367;28;20082;-66
2023/05/19 12:04:53;;;;;;;4.05;1.02;;;18.50;49.80;;;;;;5096319;28;20123;-66
2023/05/19 12:07:21;;;;;;;2.40;1.05;;;18.50;48.00;;;;;;5078124;28;20036;-66
2023/05/19 12:09:49;;;;;;;1.92;1.23;;;18.50;49.80;;;;;;5078132;28;20119;-66
2023/05/19 12:12:21;;;;;;;1.60;0.98;;;18.40;48.50;;;;;;5095979;28;20055;-65
2023/05/19 12:14:49;;;;;;;3.00;1.02;;;18.40;49.10;;;;;;5096118;28;20032;-66
2023/05/19 12:17:16;;;;;;;4.57;1.33;;;18.50;50.40;;;;;;5096393;28;20043;-66
2023/05/19 12:19:43;;;;;;;3.83;1.38;;;18.60;52.00;;;;;;5096367;28;20109;-66
2023/05/19 12:22:09;;;;;;;2.63;1.25;;;18.70;50.50;;;;;;5096226;28;20036;-66
2023/05/19 12:24:36;;;;;;;2.53;1.40;;;18.70;50.90;;;;;;5096063;28;20487;-66
2023/05/19 12:27:16;;;;;;;2.22;1.10;;;18.80;52.10;;;;;;5096190;28;20068;-66
2023/05/19 12:29:41;;;;;;;3.88;1.30;;;18.80;52.20;;;;;;5096159;28;20036;-66
2023/05/19 12:32:08;;;;;;;2.13;1.27;;;18.70;50.90;;;;;;5095960;28;20039;-66
2023/05/19 12:34:37;;;;;;;3.47;1.40;;;18.80;52.90;;;;;;5095764;28;20044;-66
2023/05/19 12:37:04;;;;;;;4.38;1.35;;;19.00;53.50;;;;;;5095973;28;20032;-66
2023/05/19 12:39:31;;;;;;;1.83;1.30;;;18.80;50.10;;;;;;5077562;28;20044;-66
2023/05/19 12:42:06;;;;;;;1.40;1.13;;;19.00;53.60;;;;;;5095840;28;20399;-66
2023/05/19 12:44:45;;;;;;;1.92;1.05;;;19.10;54.70;;;;;;5095877;28;20132;-66
2023/05/19 12:47:12;;;;;;;2.70;1.08;;;19.40;57.00;;;;;;5095814;28;20445;-66
2023/05/19 12:49:53;;;;;;;2.78;1.20;;;19.30;56.40;;;;;;5095499;28;20044;-66
2023/05/19 12:52:22;;;;;;;2.30;1.10;;;19.40;56.40;;;;;;5095639;28;20048;-66
2023/05/19 12:55:04;;;;;;;2.67;1.20;;;19.30;54.10;;;;;;5095634;28;20120;-66
2023/05/19 12:57:32;;;;;;;1.38;0.80;;;19.10;52.70;;;;;;5095369;28;20079;-66